sensor_id;sensor_type;location;lat;lon;timestamp;P1;durP1;ratioP1;P2;durP2;ratioP2
77953;SDS011;67151;52.544;6.034;2023-04-16T00:00:00;1.9;;;0.8;;
77953;SDS011;67151;52.544;6.034;2023-04-16T00:00:16;1.8;;;0.9;;
77953;SDS011;67151;52.544;6.034;2023-04-16T00:00:30;1.6;;;1;;
77953;SDS011;67151;52.544;6.034;2023-04-16T00:00:45;1.6;;;0.9;;
77953;SDS011;67151;52.544;6.034;2023-04-16T00:01:00;1.8;;;1;;
77953;SDS011;67151;52.544;6.034;2023-04-16T00:01:15;1.7;;;1;;
77953;SDS011;67151;52.544;6.034;2023-04-16T00:01:30;2;;;0.9;;
77953;SDS011;67151;52.544;6.034;2023-04-16T00:01:46;2.3;;;0.9;;
77953;SDS011;67151;52.544;6.034;2023-04-16T00:02:00;2.1;;;1;;
77953;SDS011;67151;52.544;6.034;2023-04-16T00:02:15;1.8;;;0.9;;
77953;SDS011;67151;52.544;6.034;2023-04-16T00:02:30;1.4;;;0.7;;
77953;SDS011;67151;52.544;6.034;2023-04-16T00:02:45;1.6;;;0.8;;
77953;SDS011;67151;52.544;6.034;2023-04-16T00:03:00;1.8;;;0.9;;
77953;SDS011;67151;52.544;6.034;2023-04-16T00:03:15;1.8;;;0.9;;
77953;SDS011;67151;52.544;6.034;2023-04-16T00:03:30;1.6;;;0.9;;
77953;SDS011;67151;52.544;6.034;2023-04-16T00:03:45;1.9;;;0.8;;
77953;SDS011;67151;52.544;6.034;2023-04-16T00:04:00;1.7;;;0.8;;
77953;SDS011;67151;52.544;6.034;2023-04-16T00:04:15;1.3;;;0.8;;
77953;SDS011;67151;52.544;6.034;2023-04-16T00:04:30;1.5;;;0.8;;
77953;SDS011;67151;52.544;6.034;2023-04-16T00:04:45;1.5;;;0.8;;
77953;SDS011;67151;52.544;6.034;2023-04-16T00:05:00;1.8;;;1;;
77953;SDS011;67151;52.544;6.034;2023-04-16T00:05:15;2.5;;;1;;
77953;SDS011;67151;52.544;6.034;2023-04-16T00:05:30;2.5;;;1;;
77953;SDS011;67151;52.544;6.034;2023-04-16T00:05:45;2.6;;;1.2;;
77953;SDS011;67151;52.544;6.034;2023-04-16T00:06:00;2.1;;;1;;
77953;SDS011;67151;52.544;6.034;2023-04-16T00:06:15;1.3;;;0.8;;
77953;SDS011;67151;52.544;6.034;2023-04-16T00:06:30;1.3;;;0.8;;
77953;SDS011;67151;52.544;6.034;2023-04-16T00:06:45;1.4;;;0.8;;
77953;SDS011;67151;52.544;6.034;2023-04-16T00:07:00;1.8;;;0.8;;
77953;SDS011;67151;52.544;6.034;2023-04-16T00:07:15;2.1;;;0.9;;
77953;SDS011;67151;52.544;6.034;2023-04-16T00:07:30;2.2;;;1;;
77953;SDS011;67151;52.544;6.034;2023-04-16T00:07:46;2.4;;;1;;
77953;SDS011;67151;52.544;6.034;2023-04-16T00:08:01;2.1;;;0.9;;
77953;SDS011;67151;52.544;6.034;2023-04-16T00:08:15;1.7;;;0.9;;
77953;SDS011;67151;52.544;6.034;2023-04-16T00:08:30;1.5;;;0.9;;
77953;SDS011;67151;52.544;6.034;2023-04-16T00:08:45;1.3;;;0.9;;
77953;SDS011;67151;52.544;6.034;2023-04-16T00:09:00;1.4;;;0.9;;
77953;SDS011;67151;52.544;6.034;2023-04-16T00:09:15;1.6;;;0.8;;
77953;SDS011;67151;52.544;6.034;2023-04-16T00:09:30;2;;;0.9;;
77953;SDS011;67151;52.544;6.034;2023-04-16T00:09:45;2.3;;;0.9;;
77953;SDS011;67151;52.544;6.034;2023-04-16T00:10:00;2.2;;;0.9;;
77953;SDS011;67151;52.544;6.034;2023-04-16T00:10:16;1.8;;;0.8;;
77953;SDS011;67151;52.544;6.034;2023-04-16T00:10:30;1.6;;;0.8;;
77953;SDS011;67151;52.544;6.034;2023-04-16T00:10:45;1.8;;;0.8;;
77953;SDS011;67151;52.544;6.034;2023-04-16T00:11:00;1.9;;;0.9;;
77953;SDS011;67151;52.544;6.034;2023-04-16T00:11:15;1.8;;;0.9;;
77953;SDS011;67151;52.544;6.034;2023-04-16T00:11:30;1.5;;;0.8;;
77953;SDS011;67151;52.544;6.034;2023-04-16T00:11:45;1.5;;;0.9;;
77953;SDS011;67151;52.544;6.034;2023-04-16T00:12:00;1.3;;;0.8;;
77953;SDS011;67151;52.544;6.034;2023-04-16T00:12:15;1.3;;;0.8;;
77953;SDS011;67151;52.544;6.034;2023-04-16T00:12:30;1.7;;;1;;
77953;SDS011;67151;52.544;6.034;2023-04-16T00:12:45;1.7;;;1;;
77953;SDS011;67151;52.544;6.034;2023-04-16T00:13:00;2;;;1;;
77953;SDS011;67151;52.544;6.034;2023-04-16T00:13:15;2.4;;;1;;
77953;SDS011;67151;52.544;6.034;2023-04-16T00:13:31;2.1;;;1;;
77953;SDS011;67151;52.544;6.034;2023-04-16T00:13:45;1.5;;;0.8;;
77953;SDS011;67151;52.544;6.034;2023-04-16T00:14:00;1.7;;;0.8;;
77953;SDS011;67151;52.544;6.034;2023-04-16T00:14:15;2.3;;;1;;
77953;SDS011;67151;52.544;6.034;2023-04-16T00:14:30;2;;;0.9;;
77953;SDS011;67151;52.544;6.034;2023-04-16T00:14:45;1.6;;;0.9;;
77953;SDS011;67151;52.544;6.034;2023-04-16T00:15:00;1.2;;;0.8;;
77953;SDS011;67151;52.544;6.034;2023-04-16T00:15:16;1.2;;;0.8;;
77953;SDS011;67151;52.544;6.034;2023-04-16T00:15:30;1.7;;;0.9;;
77953;SDS011;67151;52.544;6.034;2023-04-16T00:15:45;2.1;;;1;;
77953;SDS011;67151;52.544;6.034;2023-04-16T00:16:00;2.6;;;1;;
77953;SDS011;67151;52.544;6.034;2023-04-16T00:16:15;2.3;;;1;;
77953;SDS011;67151;52.544;6.034;2023-04-16T00:16:30;1.9;;;0.9;;
77953;SDS011;67151;52.544;6.034;2023-04-16T00:16:45;2;;;0.9;;
77953;SDS011;67151;52.544;6.034;2023-04-16T00:17:00;1.9;;;1;;
77953;SDS011;67151;52.544;6.034;2023-04-16T00:17:15;1.6;;;0.9;;
77953;SDS011;67151;52.544;6.034;2023-04-16T00:17:30;1.9;;;1;;
77953;SDS011;67151;52.544;6.034;2023-04-16T00:17:45;2.1;;;1.1;;
77953;SDS011;67151;52.544;6.034;2023-04-16T00:18:00;1.7;;;1;;
77953;SDS011;67151;52.544;6.034;2023-04-16T00:18:15;1.6;;;1;;
77953;SDS011;67151;52.544;6.034;2023-04-16T00:18:30;1.9;;;1;;
77953;SDS011;67151;52.544;6.034;2023-04-16T00:18:45;2.3;;;1.1;;
77953;SDS011;67151;52.544;6.034;2023-04-16T00:19:00;2.2;;;1.2;;
77953;SDS011;67151;52.544;6.034;2023-04-16T00:19:15;1.8;;;1;;
77953;SDS011;67151;52.544;6.034;2023-04-16T00:19:30;1.5;;;0.8;;
77953;SDS011;67151;52.544;6.034;2023-04-16T00:19:45;1.6;;;0.9;;
77953;SDS011;67151;52.544;6.034;2023-04-16T00:20:00;2.1;;;1;;
77953;SDS011;67151;52.544;6.034;2023-04-16T00:20:15;2;;;1;;
77953;SDS011;67151;52.544;6.034;2023-04-16T00:20:30;1.6;;;1;;
77953;SDS011;67151;52.544;6.034;2023-04-16T00:20:46;1.8;;;1.1;;
77953;SDS011;67151;52.544;6.034;2023-04-16T00:21:00;1.9;;;1.1;;
77953;SDS011;67151;52.544;6.034;2023-04-16T00:21:15;1.7;;;1;;
77953;SDS011;67151;52.544;6.034;2023-04-16T00:21:30;2.3;;;1.1;;
77953;SDS011;67151;52.544;6.034;2023-04-16T00:21:45;2.4;;;1;;
77953;SDS011;67151;52.544;6.034;2023-04-16T00:22:00;2.2;;;1;;
77953;SDS011;67151;52.544;6.034;2023-04-16T00:22:15;2.1;;;1.1;;
77953;SDS011;67151;52.544;6.034;2023-04-16T00:22:30;1.9;;;1;;
77953;SDS011;67151;52.544;6.034;2023-04-16T00:22:45;1.6;;;0.9;;
77953;SDS011;67151;52.544;6.034;2023-04-16T00:23:00;1.7;;;0.9;;
77953;SDS011;67151;52.544;6.034;2023-04-16T00:23:15;1.8;;;1;;
77953;SDS011;67151;52.544;6.034;2023-04-16T00:23:31;1.8;;;1;;
77953;SDS011;67151;52.544;6.034;2023-04-16T00:23:45;2;;;0.9;;
77953;SDS011;67151;52.544;6.034;2023-04-16T00:24:00;2.1;;;1.1;;
77953;SDS011;67151;52.544;6.034;2023-04-16T00:24:15;2.1;;;1.2;;
77953;SDS011;67151;52.544;6.034;2023-04-16T00:24:30;1.9;;;1.1;;
77953;SDS011;67151;52.544;6.034;2023-04-16T00:24:45;2.1;;;1;;
77953;SDS011;67151;52.544;6.034;2023-04-16T00:25:00;2.4;;;1;;
77953;SDS011;67151;52.544;6.034;2023-04-16T00:25:15;2.1;;;1;;
77953;SDS011;67151;52.544;6.034;2023-04-16T00:25:30;1.8;;;0.9;;
77953;SDS011;67151;52.544;6.034;2023-04-16T00:25:46;1.5;;;0.8;;
77953;SDS011;67151;52.544;6.034;2023-04-16T00:26:00;1.5;;;0.9;;
77953;SDS011;67151;52.544;6.034;2023-04-16T00:26:15;1.8;;;1.1;;
77953;SDS011;67151;52.544;6.034;2023-04-16T00:26:30;1.7;;;1.1;;
77953;SDS011;67151;52.544;6.034;2023-04-16T00:26:45;1.9;;;1;;
77953;SDS011;67151;52.544;6.034;2023-04-16T00:27:00;2;;;1;;
77953;SDS011;67151;52.544;6.034;2023-04-16T00:27:17;1.9;;;1;;
77953;SDS011;67151;52.544;6.034;2023-04-16T00:27:30;1.8;;;1;;
77953;SDS011;67151;52.544;6.034;2023-04-16T00:27:45;1.7;;;1;;
77953;SDS011;67151;52.544;6.034;2023-04-16T00:28:00;1.8;;;1;;
77953;SDS011;67151;52.544;6.034;2023-04-16T00:28:15;2.1;;;0.9;;
77953;SDS011;67151;52.544;6.034;2023-04-16T00:28:30;1.9;;;0.9;;
77953;SDS011;67151;52.544;6.034;2023-04-16T00:28:45;1.8;;;0.9;;
77953;SDS011;67151;52.544;6.034;2023-04-16T00:29:00;2.2;;;0.9;;
77953;SDS011;67151;52.544;6.034;2023-04-16T00:29:15;2.2;;;0.9;;
77953;SDS011;67151;52.544;6.034;2023-04-16T00:29:30;1.7;;;0.9;;
77953;SDS011;67151;52.544;6.034;2023-04-16T00:29:45;1.9;;;0.9;;
77953;SDS011;67151;52.544;6.034;2023-04-16T00:30:00;2.2;;;1;;
77953;SDS011;67151;52.544;6.034;2023-04-16T00:30:15;2;;;1;;
77953;SDS011;67151;52.544;6.034;2023-04-16T00:30:30;1.9;;;1;;
77953;SDS011;67151;52.544;6.034;2023-04-16T00:30:45;1.8;;;1.1;;
77953;SDS011;67151;52.544;6.034;2023-04-16T00:31:00;1.7;;;1;;
77953;SDS011;67151;52.544;6.034;2023-04-16T00:31:15;1.7;;;1;;
77953;SDS011;67151;52.544;6.034;2023-04-16T00:31:31;1.6;;;0.9;;
77953;SDS011;67151;52.544;6.034;2023-04-16T00:31:45;1.7;;;0.9;;
77953;SDS011;67151;52.544;6.034;2023-04-16T00:32:00;1.9;;;1;;
77953;SDS011;67151;52.544;6.034;2023-04-16T00:32:15;1.7;;;1.2;;
77953;SDS011;67151;52.544;6.034;2023-04-16T00:32:30;1.6;;;1;;
77953;SDS011;67151;52.544;6.034;2023-04-16T00:32:45;2.4;;;1;;
77953;SDS011;67151;52.544;6.034;2023-04-16T00:33:00;2.7;;;1.1;;
77953;SDS011;67151;52.544;6.034;2023-04-16T00:33:15;2.1;;;1;;
77953;SDS011;67151;52.544;6.034;2023-04-16T00:33:30;2.6;;;1;;
77953;SDS011;67151;52.544;6.034;2023-04-16T00:33:45;2.7;;;1.1;;
77953;SDS011;67151;52.544;6.034;2023-04-16T00:34:00;2.1;;;1;;
77953;SDS011;67151;52.544;6.034;2023-04-16T00:34:15;1.8;;;1.1;;
77953;SDS011;67151;52.544;6.034;2023-04-16T00:34:30;1.9;;;1.1;;
77953;SDS011;67151;52.544;6.034;2023-04-16T00:34:45;2;;;1;;
77953;SDS011;67151;52.544;6.034;2023-04-16T00:35:00;1.8;;;1.1;;
77953;SDS011;67151;52.544;6.034;2023-04-16T00:35:15;1.5;;;0.9;;
77953;SDS011;67151;52.544;6.034;2023-04-16T00:35:30;1.5;;;0.8;;
77953;SDS011;67151;52.544;6.034;2023-04-16T00:35:45;1.6;;;0.9;;
77953;SDS011;67151;52.544;6.034;2023-04-16T00:36:00;1.9;;;1;;
77953;SDS011;67151;52.544;6.034;2023-04-16T00:36:15;1.9;;;1;;
77953;SDS011;67151;52.544;6.034;2023-04-16T00:36:30;1.9;;;1.1;;
77953;SDS011;67151;52.544;6.034;2023-04-16T00:36:45;2.2;;;1.1;;
77953;SDS011;67151;52.544;6.034;2023-04-16T00:37:00;2;;;1;;
77953;SDS011;67151;52.544;6.034;2023-04-16T00:37:15;1.9;;;1;;
77953;SDS011;67151;52.544;6.034;2023-04-16T00:37:31;1.8;;;1.1;;
77953;SDS011;67151;52.544;6.034;2023-04-16T00:37:45;1.9;;;1.1;;
77953;SDS011;67151;52.544;6.034;2023-04-16T00:38:00;2;;;1;;
77953;SDS011;67151;52.544;6.034;2023-04-16T00:38:15;1.9;;;1;;
77953;SDS011;67151;52.544;6.034;2023-04-16T00:38:30;1.8;;;0.9;;
77953;SDS011;67151;52.544;6.034;2023-04-16T00:38:45;1.6;;;1;;
77953;SDS011;67151;52.544;6.034;2023-04-16T00:39:00;2.3;;;1.1;;
77953;SDS011;67151;52.544;6.034;2023-04-16T00:39:15;2.7;;;1.1;;
77953;SDS011;67151;52.544;6.034;2023-04-16T00:39:30;1.8;;;1;;
77953;SDS011;67151;52.544;6.034;2023-04-16T00:39:45;1.8;;;1;;
77953;SDS011;67151;52.544;6.034;2023-04-16T00:40:00;2.4;;;1.2;;
77953;SDS011;67151;52.544;6.034;2023-04-16T00:40:15;2;;;1.2;;
77953;SDS011;67151;52.544;6.034;2023-04-16T00:40:30;1.7;;;1;;
77953;SDS011;67151;52.544;6.034;2023-04-16T00:40:45;1.7;;;1;;
77953;SDS011;67151;52.544;6.034;2023-04-16T00:41:00;1.7;;;1;;
77953;SDS011;67151;52.544;6.034;2023-04-16T00:41:15;1.8;;;1;;
77953;SDS011;67151;52.544;6.034;2023-04-16T00:41:30;1.7;;;1;;
77953;SDS011;67151;52.544;6.034;2023-04-16T00:41:45;1.8;;;1.1;;
77953;SDS011;67151;52.544;6.034;2023-04-16T00:42:00;1.9;;;1.2;;
77953;SDS011;67151;52.544;6.034;2023-04-16T00:42:15;2;;;1.1;;
77953;SDS011;67151;52.544;6.034;2023-04-16T00:42:31;2.1;;;1.1;;
77953;SDS011;67151;52.544;6.034;2023-04-16T00:42:45;2.1;;;1.1;;
77953;SDS011;67151;52.544;6.034;2023-04-16T00:43:00;1.9;;;1.1;;
77953;SDS011;67151;52.544;6.034;2023-04-16T00:43:19;1.9;;;1.1;;
77953;SDS011;67151;52.544;6.034;2023-04-16T00:43:30;2;;;1;;
77953;SDS011;67151;52.544;6.034;2023-04-16T00:43:45;1.8;;;0.9;;
77953;SDS011;67151;52.544;6.034;2023-04-16T00:44:00;1.7;;;1;;
77953;SDS011;67151;52.544;6.034;2023-04-16T00:44:15;1.8;;;1.1;;
77953;SDS011;67151;52.544;6.034;2023-04-16T00:44:30;1.9;;;1.1;;
77953;SDS011;67151;52.544;6.034;2023-04-16T00:44:45;2;;;1.1;;
77953;SDS011;67151;52.544;6.034;2023-04-16T00:45:00;2;;;1.1;;
77953;SDS011;67151;52.544;6.034;2023-04-16T00:45:15;1.8;;;1.1;;
77953;SDS011;67151;52.544;6.034;2023-04-16T00:45:30;1.7;;;1.2;;
77953;SDS011;67151;52.544;6.034;2023-04-16T00:45:45;2.2;;;1.4;;
77953;SDS011;67151;52.544;6.034;2023-04-16T00:46:00;2.6;;;1.4;;
77953;SDS011;67151;52.544;6.034;2023-04-16T00:46:15;2.4;;;1.1;;
77953;SDS011;67151;52.544;6.034;2023-04-16T00:46:30;2;;;0.9;;
77953;SDS011;67151;52.544;6.034;2023-04-16T00:46:45;1.8;;;1;;
77953;SDS011;67151;52.544;6.034;2023-04-16T00:47:00;1.9;;;1.1;;
77953;SDS011;67151;52.544;6.034;2023-04-16T00:47:15;1.9;;;1.1;;
77953;SDS011;67151;52.544;6.034;2023-04-16T00:47:30;1.6;;;1;;
77953;SDS011;67151;52.544;6.034;2023-04-16T00:47:45;1.8;;;1.1;;
77953;SDS011;67151;52.544;6.034;2023-04-16T00:48:00;2.1;;;1.1;;
77953;SDS011;67151;52.544;6.034;2023-04-16T00:48:15;1.9;;;1;;
77953;SDS011;67151;52.544;6.034;2023-04-16T00:48:30;1.8;;;1;;
77953;SDS011;67151;52.544;6.034;2023-04-16T00:48:45;1.8;;;1.1;;
77953;SDS011;67151;52.544;6.034;2023-04-16T00:49:00;2.1;;;1.2;;
77953;SDS011;67151;52.544;6.034;2023-04-16T00:49:15;2;;;1.1;;
77953;SDS011;67151;52.544;6.034;2023-04-16T00:49:30;1.9;;;1.1;;
77953;SDS011;67151;52.544;6.034;2023-04-16T00:49:45;2;;;1.2;;
77953;SDS011;67151;52.544;6.034;2023-04-16T00:50:01;1.9;;;1.1;;
77953;SDS011;67151;52.544;6.034;2023-04-16T00:50:16;1.9;;;1.2;;
77953;SDS011;67151;52.544;6.034;2023-04-16T00:50:30;1.9;;;1.1;;
77953;SDS011;67151;52.544;6.034;2023-04-16T00:50:45;2.3;;;1.1;;
77953;SDS011;67151;52.544;6.034;2023-04-16T00:51:02;2;;;1;;
77953;SDS011;67151;52.544;6.034;2023-04-16T00:51:16;1.7;;;1;;
77953;SDS011;67151;52.544;6.034;2023-04-16T00:51:30;1.5;;;0.9;;
77953;SDS011;67151;52.544;6.034;2023-04-16T00:51:45;1.8;;;1;;
77953;SDS011;67151;52.544;6.034;2023-04-16T00:52:00;1.8;;;1;;
77953;SDS011;67151;52.544;6.034;2023-04-16T00:52:15;2.2;;;1.1;;
77953;SDS011;67151;52.544;6.034;2023-04-16T00:52:30;2.6;;;1.2;;
77953;SDS011;67151;52.544;6.034;2023-04-16T00:52:46;2.3;;;1.1;;
77953;SDS011;67151;52.544;6.034;2023-04-16T00:53:00;2.1;;;1.2;;
77953;SDS011;67151;52.544;6.034;2023-04-16T00:53:15;1.9;;;1.2;;
77953;SDS011;67151;52.544;6.034;2023-04-16T00:53:30;2;;;1.1;;
77953;SDS011;67151;52.544;6.034;2023-04-16T00:53:45;2;;;1;;
77953;SDS011;67151;52.544;6.034;2023-04-16T00:54:01;2.1;;;1.1;;
77953;SDS011;67151;52.544;6.034;2023-04-16T00:54:15;2.2;;;1.2;;
77953;SDS011;67151;52.544;6.034;2023-04-16T00:54:31;2.5;;;1.1;;
77953;SDS011;67151;52.544;6.034;2023-04-16T00:54:45;2.4;;;0.9;;
77953;SDS011;67151;52.544;6.034;2023-04-16T00:55:00;1.9;;;0.9;;
77953;SDS011;67151;52.544;6.034;2023-04-16T00:55:15;2.2;;;1.1;;
77953;SDS011;67151;52.544;6.034;2023-04-16T00:55:30;2.2;;;1.2;;
77953;SDS011;67151;52.544;6.034;2023-04-16T00:55:45;1.9;;;1.2;;
77953;SDS011;67151;52.544;6.034;2023-04-16T00:56:01;1.7;;;1.2;;
77953;SDS011;67151;52.544;6.034;2023-04-16T00:56:15;1.5;;;1;;
77953;SDS011;67151;52.544;6.034;2023-04-16T00:56:30;1.2;;;0.8;;
77953;SDS011;67151;52.544;6.034;2023-04-16T00:56:45;1.5;;;1;;
77953;SDS011;67151;52.544;6.034;2023-04-16T00:57:00;2.2;;;1.1;;
77953;SDS011;67151;52.544;6.034;2023-04-16T00:57:16;2.1;;;1.1;;
77953;SDS011;67151;52.544;6.034;2023-04-16T00:57:30;1.8;;;0.9;;
77953;SDS011;67151;52.544;6.034;2023-04-16T00:57:45;1.6;;;0.9;;
77953;SDS011;67151;52.544;6.034;2023-04-16T00:58:00;1.6;;;1.1;;
77953;SDS011;67151;52.544;6.034;2023-04-16T00:58:15;1.7;;;1.1;;
77953;SDS011;67151;52.544;6.034;2023-04-16T00:58:31;1.8;;;1.1;;
77953;SDS011;67151;52.544;6.034;2023-04-16T00:58:45;2.3;;;1.2;;
77953;SDS011;67151;52.544;6.034;2023-04-16T00:59:01;2.3;;;1.1;;
77953;SDS011;67151;52.544;6.034;2023-04-16T00:59:15;2.2;;;1.3;;
77953;SDS011;67151;52.544;6.034;2023-04-16T00:59:30;2.2;;;1.2;;
77953;SDS011;67151;52.544;6.034;2023-04-16T00:59:45;1.7;;;1;;
77953;SDS011;67151;52.544;6.034;2023-04-16T01:00:00;1.7;;;1;;
77953;SDS011;67151;52.544;6.034;2023-04-16T01:00:15;1.9;;;1.1;;
77953;SDS011;67151;52.544;6.034;2023-04-16T01:00:30;1.8;;;1.1;;
77953;SDS011;67151;52.544;6.034;2023-04-16T01:00:45;1.9;;;1.2;;
77953;SDS011;67151;52.544;6.034;2023-04-16T01:01:00;2.2;;;1.2;;
77953;SDS011;67151;52.544;6.034;2023-04-16T01:01:15;2;;;1.1;;
77953;SDS011;67151;52.544;6.034;2023-04-16T01:01:30;2.5;;;1.3;;
77953;SDS011;67151;52.544;6.034;2023-04-16T01:01:45;2.8;;;1.2;;
77953;SDS011;67151;52.544;6.034;2023-04-16T01:02:00;2.2;;;1;;
77953;SDS011;67151;52.544;6.034;2023-04-16T01:02:15;1.9;;;1.2;;
77953;SDS011;67151;52.544;6.034;2023-04-16T01:02:30;1.9;;;1.3;;
77953;SDS011;67151;52.544;6.034;2023-04-16T01:02:45;1.8;;;1.2;;
77953;SDS011;67151;52.544;6.034;2023-04-16T01:03:00;2.1;;;1.1;;
77953;SDS011;67151;52.544;6.034;2023-04-16T01:03:15;2.4;;;1.4;;
77953;SDS011;67151;52.544;6.034;2023-04-16T01:03:33;2.3;;;1.2;;
77953;SDS011;67151;52.544;6.034;2023-04-16T01:03:46;2.4;;;1.1;;
77953;SDS011;67151;52.544;6.034;2023-04-16T01:04:00;2.2;;;1;;
77953;SDS011;67151;52.544;6.034;2023-04-16T01:04:15;2.7;;;1.2;;
77953;SDS011;67151;52.544;6.034;2023-04-16T01:04:30;2.9;;;1.3;;
77953;SDS011;67151;52.544;6.034;2023-04-16T01:04:45;2.5;;;1.3;;
77953;SDS011;67151;52.544;6.034;2023-04-16T01:05:00;2;;;1.2;;
77953;SDS011;67151;52.544;6.034;2023-04-16T01:05:15;1.9;;;1.1;;
77953;SDS011;67151;52.544;6.034;2023-04-16T01:05:30;2.2;;;1.2;;
77953;SDS011;67151;52.544;6.034;2023-04-16T01:05:45;2.1;;;1.2;;
77953;SDS011;67151;52.544;6.034;2023-04-16T01:06:00;2;;;1.2;;
77953;SDS011;67151;52.544;6.034;2023-04-16T01:06:16;1.8;;;1.1;;
77953;SDS011;67151;52.544;6.034;2023-04-16T01:06:30;1.7;;;1;;
77953;SDS011;67151;52.544;6.034;2023-04-16T01:06:45;1.8;;;1;;
77953;SDS011;67151;52.544;6.034;2023-04-16T01:07:00;1.8;;;1.1;;
77953;SDS011;67151;52.544;6.034;2023-04-16T01:07:15;2;;;1.2;;
77953;SDS011;67151;52.544;6.034;2023-04-16T01:07:30;2;;;1.2;;
77953;SDS011;67151;52.544;6.034;2023-04-16T01:07:45;1.9;;;1.1;;
77953;SDS011;67151;52.544;6.034;2023-04-16T01:08:00;2;;;1.2;;
77953;SDS011;67151;52.544;6.034;2023-04-16T01:08:16;2.1;;;1.1;;
77953;SDS011;67151;52.544;6.034;2023-04-16T01:08:30;2.2;;;1.1;;
77953;SDS011;67151;52.544;6.034;2023-04-16T01:08:46;2.5;;;1.2;;
77953;SDS011;67151;52.544;6.034;2023-04-16T01:09:00;2.1;;;1.2;;
77953;SDS011;67151;52.544;6.034;2023-04-16T01:09:15;2.2;;;1.2;;
77953;SDS011;67151;52.544;6.034;2023-04-16T01:09:30;2.8;;;1.3;;
77953;SDS011;67151;52.544;6.034;2023-04-16T01:09:45;2.6;;;1.2;;
77953;SDS011;67151;52.544;6.034;2023-04-16T01:10:01;2;;;1.1;;
77953;SDS011;67151;52.544;6.034;2023-04-16T01:10:15;2;;;1.2;;
77953;SDS011;67151;52.544;6.034;2023-04-16T01:10:30;2.3;;;1.2;;
77953;SDS011;67151;52.544;6.034;2023-04-16T01:10:45;2;;;1.1;;
77953;SDS011;67151;52.544;6.034;2023-04-16T01:11:00;1.8;;;1.1;;
77953;SDS011;67151;52.544;6.034;2023-04-16T01:11:15;2.3;;;1.3;;
77953;SDS011;67151;52.544;6.034;2023-04-16T01:11:30;2.2;;;1.4;;
77953;SDS011;67151;52.544;6.034;2023-04-16T01:11:45;2;;;1.1;;
77953;SDS011;67151;52.544;6.034;2023-04-16T01:12:00;2.4;;;1.2;;
77953;SDS011;67151;52.544;6.034;2023-04-16T01:12:15;2.3;;;1.2;;
77953;SDS011;67151;52.544;6.034;2023-04-16T01:12:30;2.3;;;1.2;;
77953;SDS011;67151;52.544;6.034;2023-04-16T01:12:45;2.4;;;1.3;;
77953;SDS011;67151;52.544;6.034;2023-04-16T01:13:00;2.4;;;1.3;;
77953;SDS011;67151;52.544;6.034;2023-04-16T01:13:15;2.4;;;1.3;;
77953;SDS011;67151;52.544;6.034;2023-04-16T01:13:31;2.1;;;1.2;;
77953;SDS011;67151;52.544;6.034;2023-04-16T01:13:45;1.7;;;1;;
77953;SDS011;67151;52.544;6.034;2023-04-16T01:14:00;2.2;;;1.2;;
77953;SDS011;67151;52.544;6.034;2023-04-16T01:14:15;2.3;;;1.3;;
77953;SDS011;67151;52.544;6.034;2023-04-16T01:14:30;1.6;;;1.2;;
77953;SDS011;67151;52.544;6.034;2023-04-16T01:14:45;1.6;;;1.1;;
77953;SDS011;67151;52.544;6.034;2023-04-16T01:15:00;2.2;;;1.1;;
77953;SDS011;67151;52.544;6.034;2023-04-16T01:15:15;2.3;;;1.1;;
77953;SDS011;67151;52.544;6.034;2023-04-16T01:15:30;2;;;1.1;;
77953;SDS011;67151;52.544;6.034;2023-04-16T01:15:45;2;;;1.2;;
77953;SDS011;67151;52.544;6.034;2023-04-16T01:16:00;2.4;;;1.2;;
77953;SDS011;67151;52.544;6.034;2023-04-16T01:16:15;2.4;;;1.4;;
77953;SDS011;67151;52.544;6.034;2023-04-16T01:16:31;2.2;;;1.3;;
77953;SDS011;67151;52.544;6.034;2023-04-16T01:16:45;1.9;;;1;;
77953;SDS011;67151;52.544;6.034;2023-04-16T01:17:00;1.7;;;1;;
77953;SDS011;67151;52.544;6.034;2023-04-16T01:17:15;2;;;1;;
77953;SDS011;67151;52.544;6.034;2023-04-16T01:17:30;2.4;;;1;;
77953;SDS011;67151;52.544;6.034;2023-04-16T01:17:45;2.1;;;1.2;;
77953;SDS011;67151;52.544;6.034;2023-04-16T01:18:00;2.2;;;1.2;;
77953;SDS011;67151;52.544;6.034;2023-04-16T01:18:16;2.7;;;1.2;;
77953;SDS011;67151;52.544;6.034;2023-04-16T01:18:30;2.7;;;1.2;;
77953;SDS011;67151;52.544;6.034;2023-04-16T01:18:45;2.2;;;1.1;;
77953;SDS011;67151;52.544;6.034;2023-04-16T01:19:00;2.4;;;1.2;;
77953;SDS011;67151;52.544;6.034;2023-04-16T01:19:15;2.9;;;1.4;;
77953;SDS011;67151;52.544;6.034;2023-04-16T01:19:30;2.5;;;1.3;;
77953;SDS011;67151;52.544;6.034;2023-04-16T01:19:45;2.3;;;1.1;;
77953;SDS011;67151;52.544;6.034;2023-04-16T01:20:00;1.9;;;1;;
77953;SDS011;67151;52.544;6.034;2023-04-16T01:20:15;1.9;;;1;;
77953;SDS011;67151;52.544;6.034;2023-04-16T01:20:33;2;;;1.2;;
77953;SDS011;67151;52.544;6.034;2023-04-16T01:20:45;1.8;;;1.2;;
77953;SDS011;67151;52.544;6.034;2023-04-16T01:21:00;1.7;;;1.1;;
77953;SDS011;67151;52.544;6.034;2023-04-16T01:21:15;1.9;;;1.1;;
77953;SDS011;67151;52.544;6.034;2023-04-16T01:21:30;2.1;;;1.2;;
77953;SDS011;67151;52.544;6.034;2023-04-16T01:21:45;2.5;;;1.4;;
77953;SDS011;67151;52.544;6.034;2023-04-16T01:22:00;2.6;;;1.3;;
77953;SDS011;67151;52.544;6.034;2023-04-16T01:22:15;2.2;;;1.1;;
77953;SDS011;67151;52.544;6.034;2023-04-16T01:22:30;1.9;;;1.2;;
77953;SDS011;67151;52.544;6.034;2023-04-16T01:22:45;1.8;;;1.3;;
77953;SDS011;67151;52.544;6.034;2023-04-16T01:23:00;2.1;;;1.3;;
77953;SDS011;67151;52.544;6.034;2023-04-16T01:23:15;2.6;;;1.2;;
77953;SDS011;67151;52.544;6.034;2023-04-16T01:23:30;2.5;;;1;;
77953;SDS011;67151;52.544;6.034;2023-04-16T01:23:45;2.2;;;1.1;;
77953;SDS011;67151;52.544;6.034;2023-04-16T01:24:01;2.1;;;1.1;;
77953;SDS011;67151;52.544;6.034;2023-04-16T01:24:15;1.9;;;1.1;;
77953;SDS011;67151;52.544;6.034;2023-04-16T01:24:30;1.8;;;1.2;;
77953;SDS011;67151;52.544;6.034;2023-04-16T01:24:45;2.3;;;1.2;;
77953;SDS011;67151;52.544;6.034;2023-04-16T01:25:00;2.4;;;1.2;;
77953;SDS011;67151;52.544;6.034;2023-04-16T01:25:15;2.1;;;1.2;;
77953;SDS011;67151;52.544;6.034;2023-04-16T01:25:30;2.2;;;1.2;;
77953;SDS011;67151;52.544;6.034;2023-04-16T01:25:45;2.1;;;1.1;;
77953;SDS011;67151;52.544;6.034;2023-04-16T01:26:00;2;;;1.2;;
77953;SDS011;67151;52.544;6.034;2023-04-16T01:26:15;1.7;;;1.2;;
77953;SDS011;67151;52.544;6.034;2023-04-16T01:26:30;2.3;;;1.4;;
77953;SDS011;67151;52.544;6.034;2023-04-16T01:26:45;2.7;;;1.5;;
77953;SDS011;67151;52.544;6.034;2023-04-16T01:27:00;2.4;;;1.4;;
77953;SDS011;67151;52.544;6.034;2023-04-16T01:27:15;2.3;;;1.4;;
77953;SDS011;67151;52.544;6.034;2023-04-16T01:27:31;2.1;;;1.3;;
77953;SDS011;67151;52.544;6.034;2023-04-16T01:27:47;1.9;;;1.2;;
77953;SDS011;67151;52.544;6.034;2023-04-16T01:28:00;1.9;;;1.1;;
77953;SDS011;67151;52.544;6.034;2023-04-16T01:28:15;2.5;;;1.2;;
77953;SDS011;67151;52.544;6.034;2023-04-16T01:28:30;2.5;;;1.3;;
77953;SDS011;67151;52.544;6.034;2023-04-16T01:28:45;1.8;;;1.1;;
77953;SDS011;67151;52.544;6.034;2023-04-16T01:29:01;2;;;1.1;;
77953;SDS011;67151;52.544;6.034;2023-04-16T01:29:15;2;;;1.2;;
77953;SDS011;67151;52.544;6.034;2023-04-16T01:29:30;1.8;;;1.2;;
77953;SDS011;67151;52.544;6.034;2023-04-16T01:29:45;2.4;;;1.2;;
77953;SDS011;67151;52.544;6.034;2023-04-16T01:30:00;2.5;;;1.3;;
77953;SDS011;67151;52.544;6.034;2023-04-16T01:30:15;2.4;;;1.3;;
77953;SDS011;67151;52.544;6.034;2023-04-16T01:30:30;2.5;;;1.3;;
77953;SDS011;67151;52.544;6.034;2023-04-16T01:30:45;2.5;;;1.3;;
77953;SDS011;67151;52.544;6.034;2023-04-16T01:31:00;2.4;;;1.5;;
77953;SDS011;67151;52.544;6.034;2023-04-16T01:31:15;2.4;;;1.4;;
77953;SDS011;67151;52.544;6.034;2023-04-16T01:31:30;2;;;1.2;;
77953;SDS011;67151;52.544;6.034;2023-04-16T01:31:45;2.4;;;1.2;;
77953;SDS011;67151;52.544;6.034;2023-04-16T01:32:00;2.8;;;1.3;;
77953;SDS011;67151;52.544;6.034;2023-04-16T01:32:15;2.3;;;1.2;;
77953;SDS011;67151;52.544;6.034;2023-04-16T01:32:31;2.4;;;1.4;;
77953;SDS011;67151;52.544;6.034;2023-04-16T01:32:45;2.2;;;1.3;;
77953;SDS011;67151;52.544;6.034;2023-04-16T01:33:00;1.9;;;1.1;;
77953;SDS011;67151;52.544;6.034;2023-04-16T01:33:16;2.1;;;1.2;;
77953;SDS011;67151;52.544;6.034;2023-04-16T01:33:30;2.1;;;1.2;;
77953;SDS011;67151;52.544;6.034;2023-04-16T01:33:45;2.2;;;1.3;;
77953;SDS011;67151;52.544;6.034;2023-04-16T01:34:00;2.3;;;1.3;;